createdAt,value
2018-02-15T00:01:30.012Z,12.30
2018-02-15T00:03:56.186Z,10.77
2018-02-15T00:06:23.063Z,14.87
2018-02-15T00:08:49.195Z,14.07
2018-02-15T00:11:15.567Z,13.70
2018-02-15T00:13:41.743Z,13.07
2018-02-15T00:16:07.933Z,13.73
2018-02-15T00:18:34.053Z,16.35
2018-02-15T00:21:00.187Z,12.90
2018-02-15T00:23:26.317Z,14.25
2018-02-15T00:25:53.254Z,16.70
2018-02-15T00:28:19.449Z,14.70
2018-02-15T00:30:45.816Z,17.23
2018-02-15T00:33:11.977Z,12.63
2018-02-15T00:35:38.093Z,14.73
2018-02-15T00:38:04.242Z,14.15
2018-02-15T00:40:30.423Z,17.17
2018-02-15T00:42:56.678Z,12.70
2018-02-15T00:45:22.955Z,16.40
2018-02-15T00:47:50.446Z,11.55
2018-02-15T00:50:16.654Z,13.20
2018-02-15T00:52:42.806Z,15.18
2018-02-15T00:55:08.918Z,11.95
2018-02-15T00:57:36.100Z,16.55
2018-02-15T01:00:02.251Z,9.68
2018-02-15T01:02:28.447Z,18.40
2018-02-15T01:04:54.622Z,15.90
2018-02-15T01:07:20.882Z,19.08
2018-02-15T01:09:47.034Z,15.00
2018-02-15T01:12:13.139Z,14.98
2018-02-15T01:14:39.292Z,16.35
2018-02-15T01:17:05.668Z,11.95
2018-02-15T01:19:31.854Z,14.15
2018-02-15T01:21:58.072Z,16.27
2018-02-15T01:24:24.251Z,13.15
2018-02-15T01:26:50.427Z,15.07
2018-02-15T01:29:16.558Z,14.50
2018-02-15T01:31:42.690Z,13.85
2018-02-15T01:34:10.027Z,14.70
2018-02-15T01:36:36.215Z,12.15
2018-02-15T01:39:02.435Z,14.02
2018-02-15T01:41:28.559Z,17.02
2018-02-15T01:43:54.818Z,11.32
2018-02-15T01:46:21.717Z,14.80
2018-02-15T01:48:47.889Z,14.05
2018-02-15T01:51:14.802Z,13.10
2018-02-15T01:53:41.070Z,11.10
2018-02-15T01:56:07.250Z,13.70
2018-02-15T01:58:33.633Z,11.12
2018-02-15T02:00:59.812Z,17.17
2018-02-15T02:03:26.712Z,16.50
2018-02-15T02:05:52.856Z,17.37
2018-02-15T02:08:19.053Z,14.50
2018-02-15T02:10:45.289Z,14.75
2018-02-15T02:13:11.443Z,14.55
2018-02-15T02:15:37.635Z,13.62
2018-02-15T02:18:06.758Z,13.93
2018-02-15T02:20:32.924Z,13.32
2018-02-15T02:22:59.142Z,12.45
2018-02-15T02:25:25.442Z,14.60
2018-02-15T02:27:52.170Z,13.02
2018-02-15T02:30:18.516Z,12.27
2018-02-15T02:32:44.722Z,12.60
2018-02-15T02:35:10.869Z,13.15
2018-02-15T02:37:37.068Z,15.45
2018-02-15T02:40:03.223Z,11.63
2018-02-15T02:42:29.407Z,13.25
2018-02-15T02:44:56.333Z,11.60
2018-02-15T02:47:22.531Z,12.35
2018-02-15T02:49:48.816Z,10.45
2018-02-15T02:52:15.661Z,12.20
2018-02-15T02:54:41.773Z,10.27
2018-02-15T02:57:07.906Z,11.85
2018-02-15T02:59:34.152Z,11.02
2018-02-15T03:02:00.258Z,11.38
2018-02-15T03:04:26.612Z,11.18
2018-02-15T03:06:52.779Z,12.37
2018-02-15T03:09:19.002Z,11.45
2018-02-15T03:11:45.204Z,13.48
2018-02-15T03:14:11.426Z,11.05
2018-02-15T03:16:37.555Z,13.13
2018-02-15T03:19:03.761Z,11.07
2018-02-15T03:21:30.626Z,10.30
2018-02-15T03:23:56.746Z,11.75
2018-02-15T03:26:23.594Z,12.52
2018-02-15T03:28:49.717Z,12.15
2018-02-15T03:31:15.822Z,14.30
2018-02-15T03:33:41.977Z,12.23
2018-02-15T03:36:08.202Z,16.25
2018-02-15T03:38:34.379Z,12.40
2018-02-15T03:41:01.585Z,12.23
2018-02-15T03:43:27.831Z,12.30
2018-02-15T03:45:55.022Z,13.05
2018-02-15T03:48:21.208Z,13.80
2018-02-15T03:50:47.387Z,14.00
2018-02-15T03:53:14.264Z,12.63
2018-02-15T03:55:40.459Z,18.95
2018-02-15T03:58:07.547Z,12.35
2018-02-15T04:00:33.906Z,14.23
2018-02-15T04:03:00.274Z,14.85
2018-02-15T04:05:26.431Z,14.68
2018-02-15T04:07:52.901Z,17.15
2018-02-15T04:10:20.212Z,16.00
2018-02-15T04:12:46.415Z,13.20
2018-02-15T04:15:12.634Z,13.05
2018-02-15T04:17:43.104Z,13.02
2018-02-15T04:20:09.290Z,12.93
2018-02-15T04:22:35.420Z,13.98
2018-02-15T04:25:05.272Z,15.13
2018-02-15T04:27:31.415Z,14.07
2018-02-15T04:29:57.582Z,16.65
2018-02-15T04:32:23.733Z,13.00
2018-02-15T04:34:50.004Z,15.07
2018-02-15T04:37:16.145Z,14.65
2018-02-15T04:39:42.297Z,15.15
2018-02-15T04:42:08.514Z,14.80
2018-02-15T04:44:34.650Z,14.98
2018-02-15T04:47:00.997Z,17.10
2018-02-15T04:49:27.438Z,11.38
2018-02-15T04:51:53.757Z,16.12
2018-02-15T04:54:20.119Z,15.57
2018-02-15T04:56:46.434Z,18.10
2018-02-15T04:59:12.808Z,16.62
2018-02-15T05:01:39.120Z,17.08
2018-02-15T05:04:05.477Z,15.15
2018-02-15T05:06:31.774Z,22.65
2018-02-15T05:08:58.215Z,21.05
2018-02-15T05:11:24.747Z,23.55
2018-02-15T05:13:51.104Z,22.20
2018-02-15T05:16:18.258Z,20.05
2018-02-15T05:18:44.634Z,22.40
2018-02-15T05:21:11.744Z,19.20
2018-02-15T05:23:38.094Z,20.60
2018-02-15T05:26:05.770Z,22.80
2018-02-15T05:28:32.202Z,20.05
2018-02-15T05:30:58.569Z,19.92
2018-02-15T05:33:25.025Z,25.55
2018-02-15T05:35:52.010Z,21.50
2018-02-15T05:38:18.247Z,23.77
2018-02-15T05:40:44.765Z,23.50
2018-02-15T05:43:11.856Z,25.08
2018-02-15T05:45:38.297Z,24.50
2018-02-15T05:48:04.748Z,26.85
2018-02-15T05:50:32.337Z,21.92
2018-02-15T05:52:58.647Z,22.62
2018-02-15T05:55:25.924Z,21.70
2018-02-15T05:57:52.222Z,25.83
2018-02-15T06:00:18.531Z,20.95
2018-02-15T06:02:44.908Z,26.67
2018-02-15T06:05:14.780Z,21.27
2018-02-15T06:07:41.133Z,18.87
2018-02-15T06:10:08.055Z,23.90
2018-02-15T06:12:38.393Z,24.35
2018-02-15T06:15:06.044Z,27.83
2018-02-15T06:17:32.358Z,25.15
2018-02-15T06:19:58.522Z,24.87
2018-02-15T06:22:24.683Z,27.90
2018-02-15T06:28:00.480Z,22.58
2018-02-15T06:30:30.628Z,26.00
2018-02-15T06:32:56.968Z,22.83
2018-02-15T06:35:23.204Z,21.23
2018-02-15T06:37:53.331Z,23.17
2018-02-15T06:40:22.320Z,18.73
2018-02-15T06:42:48.632Z,23.67
2018-02-15T06:47:59.586Z,22.67
2018-02-15T06:50:30.478Z,21.67
2018-02-15T06:52:57.094Z,21.10
2018-02-15T06:55:29.427Z,18.37
2018-02-15T06:57:56.516Z,27.37
2018-02-15T07:00:23.688Z,22.70
2018-02-15T07:03:18.167Z,21.52
2018-02-15T07:08:25.726Z,19.77
2018-02-15T07:10:52.416Z,19.90
2018-02-15T07:13:18.818Z,20.05
2018-02-15T07:15:45.870Z,19.12
2018-02-15T07:18:12.311Z,16.55
2018-02-15T07:20:39.314Z,19.80
2018-02-15T07:23:05.672Z,18.08
2018-02-15T07:25:35.982Z,22.80
2018-02-15T07:28:02.255Z,16.67
2018-02-15T07:30:28.594Z,17.42
2018-02-15T07:32:54.902Z,11.60
2018-02-15T07:35:21.975Z,18.60
2018-02-15T07:40:46.422Z,16.75
2018-02-15T07:43:12.602Z,12.45
2018-02-15T07:45:38.862Z,15.65
2018-02-15T07:48:05.023Z,12.48
2018-02-15T07:59:26.543Z,8.00
2018-02-15T08:08:04.531Z,12.37
2018-02-15T08:10:40.440Z,12.60
2018-02-15T08:13:06.573Z,12.07
2018-02-15T08:15:34.133Z,11.43
2018-02-15T08:18:00.837Z,8.93
2018-02-15T08:20:27.697Z,10.13
2018-02-15T08:25:43.268Z,11.32
2018-02-15T08:28:09.577Z,9.98
2018-02-15T08:30:35.914Z,14.52
2018-02-15T08:33:02.992Z,9.02
2018-02-15T08:35:31.453Z,12.73
2018-02-15T08:37:58.995Z,12.02
2018-02-15T08:40:27.245Z,11.82
2018-02-15T08:42:54.527Z,9.88
2018-02-15T08:45:20.976Z,10.95
2018-02-15T08:47:47.370Z,11.15
2018-02-15T08:50:14.585Z,10.80
2018-02-15T08:52:42.485Z,11.93
2018-02-15T08:55:08.979Z,11.35
2018-02-15T09:00:28.578Z,11.35
2018-02-15T09:02:56.041Z,13.65
2018-02-15T09:05:22.391Z,11.15
2018-02-15T09:07:49.402Z,13.62
2018-02-15T09:10:22.355Z,14.75
2018-02-15T09:13:04.328Z,9.07
2018-02-15T09:18:17.590Z,16.77
2018-02-15T09:20:43.691Z,10.20
2018-02-15T09:23:09.930Z,14.30
2018-02-15T09:25:50.890Z,15.27
2018-02-15T09:28:17.775Z,11.20
2018-02-15T09:30:43.923Z,10.07
2018-02-15T09:35:52.163Z,11.27
2018-02-15T09:38:19.497Z,13.68
2018-02-15T09:40:45.884Z,9.05
2018-02-15T09:43:12.014Z,11.88
2018-02-15T09:45:38.189Z,10.60
2018-02-15T09:48:04.287Z,9.70
2018-02-15T09:50:51.215Z,13.60
2018-02-15T09:56:29.751Z,12.40
2018-02-15T09:58:56.151Z,12.63
2018-02-15T10:01:22.553Z,10.27
2018-02-15T10:03:51.082Z,11.27
2018-02-15T10:06:22.899Z,9.73
2018-02-15T10:08:50.946Z,12.23
2018-02-15T10:11:17.314Z,13.95
2018-02-15T10:13:44.246Z,10.02
2018-02-15T10:16:25.166Z,11.73
2018-02-15T10:18:51.499Z,11.15
2018-02-15T10:21:21.171Z,13.52
2018-02-15T10:23:47.512Z,13.80
2018-02-15T10:26:13.865Z,11.98
2018-02-15T10:28:50.872Z,13.48
2018-02-15T10:31:20.874Z,12.95
2018-02-15T10:33:47.225Z,14.23
2018-02-15T10:36:21.568Z,14.65
2018-02-15T10:38:51.282Z,13.80
2018-02-15T10:41:17.638Z,15.43
2018-02-15T10:43:43.985Z,13.45
2018-02-15T10:46:11.940Z,12.32
2018-02-15T10:48:38.420Z,14.13
2018-02-15T10:51:05.524Z,15.90
2018-02-15T10:53:32.288Z,12.37
2018-02-15T10:56:20.939Z,14.30
2018-02-15T10:58:47.511Z,12.18
2018-02-15T11:01:19.781Z,11.95
2018-02-15T11:03:46.616Z,13.65
2018-02-15T11:06:12.818Z,13.50
2018-02-15T11:08:38.938Z,12.95
2018-02-15T11:11:05.097Z,15.18
2018-02-15T11:13:31.252Z,13.15
2018-02-15T11:15:58.753Z,12.57
2018-02-15T11:18:31.287Z,9.35
2018-02-15T11:23:58.211Z,11.23
2018-02-15T11:26:33.107Z,10.55
2018-02-15T11:28:59.378Z,10.38
2018-02-15T11:31:26.279Z,13.00
2018-02-15T11:33:52.405Z,11.32
2018-02-15T11:36:22.321Z,11.18
2018-02-15T11:38:55.552Z,9.93
2018-02-15T11:41:40.288Z,10.52
2018-02-15T11:44:06.668Z,11.05
2018-02-15T11:46:33.264Z,11.10
2018-02-15T11:48:59.677Z,10.25
2018-02-15T11:54:12.582Z,12.45
2018-02-15T11:56:51.673Z,10.70
2018-02-15T11:59:18.175Z,7.68
2018-02-15T12:01:50.874Z,8.38
2018-02-15T12:04:17.202Z,8.35
2018-02-15T12:06:43.686Z,10.55
2018-02-15T12:09:16.548Z,9.70
2018-02-15T12:11:43.028Z,10.40
2018-02-15T12:14:09.376Z,8.23
2018-02-15T12:16:39.581Z,10.35
2018-02-15T12:19:06.200Z,10.35
2018-02-15T12:21:32.570Z,12.30
2018-02-15T12:23:58.909Z,9.27
2018-02-15T12:26:25.225Z,8.98
2018-02-15T12:29:15.912Z,9.88
2018-02-15T12:31:42.620Z,9.25
2018-02-15T12:34:09.242Z,8.90
2018-02-15T12:39:08.778Z,9.88
2018-02-15T12:41:36.125Z,10.38
2018-02-15T12:44:02.597Z,9.40
2018-02-15T12:46:29.778Z,7.72
2018-02-15T12:48:56.188Z,10.98
2018-02-15T12:51:22.767Z,8.55
2018-02-15T12:53:49.200Z,8.75
2018-02-15T12:56:19.639Z,12.35
2018-02-15T12:58:46.145Z,11.60
2018-02-15T13:01:12.651Z,9.88
2018-02-15T13:03:39.083Z,9.88
2018-02-15T13:06:06.040Z,9.00
2018-02-15T13:08:32.594Z,10.38
2018-02-15T13:11:07.974Z,12.02
2018-02-15T13:13:35.221Z,12.95
2018-02-15T13:16:13.874Z,11.20
2018-02-15T13:21:11.857Z,9.85
2018-02-15T13:23:38.376Z,11.43
2018-02-15T13:26:04.810Z,10.27
2018-02-15T13:28:40.349Z,9.85
2018-02-15T13:31:13.199Z,12.95
2018-02-15T13:33:39.751Z,13.68
2018-02-15T13:36:06.190Z,10.57
2018-02-15T13:38:32.549Z,11.45
2018-02-15T13:40:59.061Z,9.23
2018-02-15T13:43:26.552Z,10.35
2018-02-15T13:45:57.354Z,11.85
2018-02-15T13:48:23.689Z,10.93
2018-02-15T13:50:50.132Z,12.45
2018-02-15T13:53:16.705Z,10.43
2018-02-15T13:56:00.224Z,11.95
2018-02-15T13:58:28.234Z,11.60
2018-02-15T14:00:54.637Z,12.73
2018-02-15T14:03:21.022Z,7.95
2018-02-15T14:05:47.407Z,11.52
2018-02-15T14:08:13.897Z,15.63
2018-02-15T14:10:40.308Z,11.12
2018-02-15T14:13:08.718Z,11.45
2018-02-15T14:15:35.073Z,8.52
2018-02-15T14:18:01.790Z,9.48
2018-02-15T14:20:28.242Z,11.30
2018-02-15T14:22:54.651Z,11.82
2018-02-15T14:25:20.982Z,10.57
2018-02-15T14:27:47.323Z,10.52
2018-02-15T14:30:16.714Z,11.32
2018-02-15T14:32:44.751Z,9.48
2018-02-15T14:35:11.165Z,9.70
2018-02-15T14:37:37.574Z,12.35
2018-02-15T14:40:04.265Z,14.45
2018-02-15T14:42:31.328Z,13.20
2018-02-15T14:44:58.057Z,8.32
2018-02-15T14:47:24.627Z,11.35
2018-02-15T14:49:53.894Z,13.62
2018-02-15T14:52:53.110Z,8.90
2018-02-15T14:55:19.690Z,11.85
2018-02-15T14:57:46.178Z,12.35
2018-02-15T15:00:12.776Z,9.10
2018-02-15T15:02:39.562Z,10.77
2018-02-15T15:05:09.493Z,10.50
2018-02-15T15:07:40.122Z,9.18
2018-02-15T15:10:06.676Z,10.38
2018-02-15T15:12:34.055Z,9.60
2018-02-15T15:15:00.696Z,9.68
2018-02-15T15:17:27.387Z,12.23
2018-02-15T15:19:54.715Z,11.48
2018-02-15T15:22:21.374Z,10.45
2018-02-15T15:24:52.884Z,9.82
2018-02-15T15:27:20.458Z,11.20
2018-02-15T15:29:47.252Z,9.13
2018-02-15T15:32:14.539Z,12.50
2018-02-15T15:34:41.208Z,10.30
2018-02-15T15:37:08.661Z,11.40
2018-02-15T15:39:41.542Z,11.57
2018-02-15T15:42:08.261Z,11.52
2018-02-15T15:44:35.500Z,9.32
2018-02-15T15:47:01.921Z,12.43
2018-02-15T15:49:28.305Z,14.90
2018-02-15T15:51:54.758Z,11.80
2018-02-15T15:54:21.817Z,15.70
2018-02-15T15:56:48.383Z,12.02
2018-02-15T15:59:14.750Z,10.02
2018-02-15T16:01:48.466Z,13.02
2018-02-15T16:04:14.847Z,14.02
2018-02-15T16:06:41.398Z,15.50
2018-02-15T16:09:09.683Z,16.42
2018-02-15T16:11:36.090Z,12.88
2018-02-15T16:14:02.420Z,14.80
2018-02-15T16:16:28.857Z,11.12
2018-02-15T16:18:55.198Z,12.82
2018-02-15T16:21:21.573Z,15.95
2018-02-15T16:23:47.965Z,14.27
2018-02-15T16:26:15.102Z,17.90
2018-02-15T16:28:42.098Z,14.98
2018-02-15T16:31:10.552Z,17.90
2018-02-15T16:33:37.486Z,14.13
2018-02-15T16:36:03.851Z,16.40
2018-02-15T16:38:30.962Z,14.57
2018-02-15T16:40:57.432Z,17.10
2018-02-15T16:46:12.857Z,17.70
2018-02-15T16:48:49.600Z,16.05
2018-02-15T16:51:16.035Z,19.50
2018-02-15T16:53:43.851Z,23.42
2018-02-15T16:56:10.449Z,16.12
2018-02-15T16:58:38.929Z,19.60
2018-02-15T17:01:05.511Z,19.42
2018-02-15T17:03:49.662Z,22.52
2018-02-15T17:06:16.144Z,19.02
2018-02-15T17:08:42.443Z,19.73
2018-02-15T17:11:10.654Z,18.85
2018-02-15T17:13:37.999Z,19.45
2018-02-15T17:16:06.467Z,18.58
2018-02-15T17:18:33.165Z,17.75
2018-02-15T17:21:12.355Z,19.77
2018-02-15T17:23:38.617Z,20.23
2018-02-15T17:26:04.916Z,17.83
2018-02-15T17:28:31.178Z,22.25
2018-02-15T17:31:01.143Z,20.35
2018-02-15T17:33:27.344Z,22.83
2018-02-15T17:35:53.547Z,21.50
2018-02-15T17:38:19.978Z,23.12
2018-02-15T17:40:46.286Z,25.48
2018-02-15T17:43:12.447Z,28.15
2018-02-15T17:45:45.021Z,26.58
2018-02-15T17:48:11.322Z,19.33
2018-02-15T17:50:37.524Z,28.85
2018-02-15T17:53:03.759Z,28.17
2018-02-15T17:55:30.295Z,25.30
2018-02-15T17:57:59.244Z,33.58
2018-02-15T18:00:25.648Z,30.08
2018-02-15T18:02:51.867Z,27.67
2018-02-15T18:05:18.065Z,28.67
2018-02-15T18:07:44.278Z,27.77
2018-02-15T18:10:11.187Z,26.98
2018-02-15T18:12:37.370Z,30.27
2018-02-15T18:15:04.091Z,31.27
2018-02-15T18:17:30.266Z,30.50
2018-02-15T18:19:56.546Z,31.17
2018-02-15T18:22:22.842Z,27.95
2018-02-15T18:24:49.021Z,35.42
2018-02-15T18:27:15.233Z,29.48
2018-02-15T18:29:41.423Z,33.25
2018-02-15T18:32:21.628Z,31.10
2018-02-15T18:34:48.602Z,30.98
2018-02-15T18:37:14.998Z,31.65
2018-02-15T18:39:48.188Z,29.40
2018-02-15T18:42:14.526Z,29.92
2018-02-15T18:44:41.767Z,34.25
2018-02-15T18:47:08.229Z,34.33
2018-02-15T18:49:34.795Z,28.02
2018-02-15T18:52:01.231Z,25.83
2018-02-15T18:54:27.682Z,30.85
2018-02-15T18:56:54.027Z,32.55
2018-02-15T18:59:20.261Z,29.77
2018-02-15T19:01:47.378Z,31.58
2018-02-15T19:04:13.630Z,31.58
2018-02-15T19:06:40.053Z,34.67
2018-02-15T19:09:06.722Z,34.10
2018-02-15T19:11:36.601Z,32.25
2018-02-15T19:14:02.954Z,28.58
2018-02-15T19:16:29.196Z,30.10
2018-02-15T19:18:56.287Z,35.10
2018-02-15T19:21:22.558Z,35.30
2018-02-15T19:23:48.834Z,33.55
2018-02-15T19:26:15.342Z,31.80
2018-02-15T19:28:44.652Z,35.55
2018-02-15T19:31:11.371Z,33.10
2018-02-15T19:33:40.848Z,34.70
2018-02-15T19:36:08.292Z,27.10
2018-02-15T19:38:34.904Z,27.55
2018-02-15T19:41:01.613Z,28.80
2018-02-15T19:43:28.626Z,27.08
2018-02-15T19:45:56.605Z,31.70
2018-02-15T19:48:26.014Z,27.42
2018-02-15T19:50:54.180Z,31.52
2018-02-15T19:53:21.869Z,27.50
2018-02-15T19:55:48.264Z,24.83
2018-02-15T19:58:15.070Z,27.50
2018-02-15T20:00:42.324Z,26.33
2018-02-15T20:03:10.180Z,29.80
2018-02-15T20:05:37.038Z,28.50
2018-02-15T20:08:04.838Z,28.30
2018-02-15T20:10:32.952Z,34.13
2018-02-15T20:13:00.301Z,29.05
2018-02-15T20:15:33.061Z,25.73
2018-02-15T20:17:59.747Z,28.50
2018-02-15T20:20:27.374Z,26.98
2018-02-15T20:22:54.733Z,29.65
2018-02-15T20:25:21.239Z,36.95
2018-02-15T20:27:53.864Z,32.08
2018-02-15T20:30:20.554Z,26.48
2018-02-15T20:32:46.985Z,33.85
2018-02-15T20:35:13.749Z,30.25
2018-02-15T20:37:46.366Z,31.80
2018-02-15T20:40:23.309Z,29.98
2018-02-15T20:42:49.829Z,30.50
2018-02-15T20:45:16.366Z,30.40
2018-02-15T20:47:47.722Z,32.40
2018-02-15T20:50:21.673Z,35.47
2018-02-15T20:52:54.947Z,32.95
2018-02-15T20:55:28.919Z,27.85
2018-02-15T20:57:57.321Z,33.15
2018-02-15T21:00:24.151Z,40.53
2018-02-15T21:02:50.622Z,30.77
2018-02-15T21:05:17.833Z,34.22
2018-02-15T21:07:44.513Z,36.25
2018-02-15T21:12:45.315Z,29.50
2018-02-15T21:15:13.037Z,27.60
2018-02-15T21:17:46.927Z,25.95
2018-02-15T21:20:15.131Z,32.40
2018-02-15T21:22:42.648Z,31.23
2018-02-15T21:25:09.450Z,30.70
2018-02-15T21:27:37.590Z,32.15
2018-02-15T21:30:04.440Z,24.73
2018-02-15T21:32:31.133Z,28.48
2018-02-15T21:34:57.715Z,25.58
2018-02-15T21:37:24.276Z,30.20
2018-02-15T21:39:50.826Z,23.25
2018-02-15T21:42:17.426Z,26.87
2018-02-15T21:44:44.155Z,27.65
2018-02-15T21:47:11.574Z,29.12
2018-02-15T21:49:39.078Z,35.42
2018-02-15T21:52:05.678Z,30.12
2018-02-15T21:54:32.897Z,29.73
2018-02-15T21:57:00.048Z,24.23
2018-02-15T21:59:27.199Z,25.12
2018-02-15T22:01:56.962Z,28.52
2018-02-15T22:04:26.930Z,32.50
2018-02-15T22:06:56.569Z,33.75
2018-02-15T22:09:23.359Z,35.17
2018-02-15T22:11:51.853Z,35.28
2018-02-15T22:14:18.341Z,28.98
2018-02-15T22:16:45.074Z,24.90
2018-02-15T22:19:11.674Z,24.27
2018-02-15T22:21:38.363Z,24.85
2018-02-15T22:24:04.894Z,33.33
2018-02-15T22:26:31.856Z,31.05
2018-02-15T22:28:58.878Z,24.58
2018-02-15T22:31:27.508Z,31.35
2018-02-15T22:33:54.079Z,28.08
2018-02-15T22:36:21.147Z,22.37
2018-02-15T22:38:47.470Z,29.65
2018-02-15T22:41:15.551Z,35.80
2018-02-15T22:43:42.611Z,35.60
2018-02-15T22:46:09.041Z,29.40
2018-02-15T22:48:36.133Z,32.72
2018-02-15T22:51:02.664Z,30.67
2018-02-15T22:53:29.674Z,23.25
2018-02-15T22:55:57.247Z,23.42
2018-02-15T22:58:23.755Z,33.25
2018-02-15T23:00:53.523Z,24.45
2018-02-15T23:03:19.729Z,28.95
2018-02-15T23:05:46.019Z,24.75
2018-02-15T23:08:12.264Z,26.15
2018-02-15T23:10:38.598Z,21.73
2018-02-15T23:13:05.771Z,21.33
2018-02-15T23:15:32.180Z,19.58
2018-02-15T23:17:58.622Z,22.62
2018-02-15T23:20:25.821Z,27.05
2018-02-15T23:22:52.611Z,25.83
2018-02-15T23:25:18.863Z,19.08
2018-02-15T23:27:45.942Z,19.80
2018-02-15T23:30:15.962Z,24.02
2018-02-15T23:32:42.417Z,20.70
2018-02-15T23:35:09.064Z,25.55
2018-02-15T23:37:36.238Z,24.23
2018-02-15T23:40:03.609Z,19.90
2018-02-15T23:42:30.419Z,24.05
2018-02-15T23:44:56.948Z,26.00
2018-02-15T23:47:23.649Z,25.23
2018-02-15T23:49:49.919Z,20.30
2018-02-15T23:52:16.122Z,19.52
2018-02-15T23:54:42.463Z,28.85
2018-02-15T23:57:09.946Z,19.05
2018-02-15T23:59:36.850Z,17.73
